Time;durP1;ratioP1;P1;durP2;ratioP2;P2;SDS_P1;SDS_P2;PMS_P1;PMS_P2;Temp;Humidity;BMP_temperature;BMP_pressure;BME280_temperature;BME280_humidity;BME280_pressure;Samples;Min_cycle;Max_cycle;Signal;HPM_P1;HPM_P2
2023/02/27 00:02:12;;;;;;;11.00;4.80;;;;;;;0.22;71.47;100271.97;1470736;88;22830;-75
2023/02/27 00:04:38;;;;;;;22.90;5.60;;;;;;;0.21;71.30;100266.39;1476269;88;22157;-75
2023/02/27 00:07:06;;;;;;;11.73;6.05;;;;;;;0.22;71.49;100278.01;1460980;88;21581;-75
2023/02/27 00:09:32;;;;;;;11.03;6.40;;;;;;;0.22;71.33;100270.66;1473184;87;21669;-74
2023/02/27 00:11:59;;;;;;;9.93;6.10;;;;;;;0.22;71.13;100273.27;1465125;87;21479;-76
2023/02/27 00:14:25;;;;;;;11.40;5.70;;;;;;;0.19;71.25;100282.55;1471569;88;21739;-76
2023/02/27 00:16:51;;;;;;;11.45;5.65;;;;;;;0.19;71.51;100266.47;1466374;87;21736;-76
2023/02/27 00:19:18;;;;;;;9.00;5.10;;;;;;;0.18;71.53;100271.30;1471513;88;21420;-76
2023/02/27 00:21:44;;;;;;;11.33;5.97;;;;;;;0.17;71.27;100267.03;1473541;88;21604;-75
2023/02/27 00:24:10;;;;;;;8.07;5.17;;;;;;;0.17;71.10;100255.77;1467986;87;22481;-76
2023/02/27 00:26:37;;;;;;;14.00;5.20;;;;;;;0.15;71.23;100264.14;1473807;88;21739;-75
2023/02/27 00:29:04;;;;;;;19.37;6.17;;;;;;;0.13;70.91;100272.48;1471726;87;21621;-76
2023/02/27 00:31:30;;;;;;;9.20;5.80;;;;;;;0.15;70.97;100272.78;1476892;87;21609;-77
2023/02/27 00:33:56;;;;;;;8.73;4.73;;;;;;;0.15;70.60;100262.84;1466081;88;21713;-75
2023/02/27 00:36:23;;;;;;;8.50;5.20;;;;;;;0.11;70.48;100276.92;1472928;88;21559;-75
2023/02/27 00:38:49;;;;;;;12.13;6.23;;;;;;;0.09;70.75;100266.62;1477068;88;22620;-76
2023/02/27 00:41:15;;;;;;;9.17;5.03;;;;;;;0.08;70.56;100268.82;1465025;87;21666;-76
2023/02/27 00:43:41;;;;;;;8.10;4.40;;;;;;;0.07;70.44;100258.52;1471128;88;21623;-76
2023/02/27 00:46:09;;;;;;;7.87;4.27;;;;;;;0.04;70.03;100263.89;1473512;88;21809;-75
2023/02/27 00:48:37;;;;;;;10.63;6.00;;;;;;;0.05;69.91;100257.75;1478566;87;21629;-76
2023/02/27 00:51:03;;;;;;;11.55;5.15;;;;;;;0.06;69.66;100264.63;1474342;88;22300;-75
2023/02/27 00:53:30;;;;;;;14.30;6.05;;;;;;;0.03;69.71;100265.66;1468966;88;21383;-78
2023/02/27 00:55:56;;;;;;;8.53;5.03;;;;;;;0.01;69.54;100265.36;1480628;87;21531;-76
2023/02/27 00:58:22;;;;;;;5.20;3.43;;;;;;;-0.01;69.19;100260.23;1476611;88;23027;-76
2023/02/27 01:00:48;;;;;;;9.57;5.57;;;;;;;-0.06;69.27;100261.80;1471589;87;21831;-77
2023/02/27 01:03:15;;;;;;;18.75;6.08;;;;;;;-0.07;68.97;100261.41;1470115;88;22245;-76
2023/02/27 01:05:41;;;;;;;10.05;4.92;;;;;;;-0.07;68.81;100262.70;1464811;88;21412;-78
2023/02/27 01:08:07;;;;;;;15.87;5.53;;;;;;;-0.08;68.58;100262.33;1475694;88;21530;-75
2023/02/27 01:10:34;;;;;;;11.70;5.10;;;;;;;-0.09;68.10;100259.80;1469630;88;22154;-76
2023/02/27 01:13:00;;;;;;;12.37;4.13;;;;;;;-0.13;68.04;100261.73;1472998;88;22537;-76
2023/02/27 01:15:26;;;;;;;6.40;4.43;;;;;;;-0.14;67.99;100261.37;1470912;88;22065;-76
2023/02/27 01:17:53;;;;;;;6.70;3.55;;;;;;;-0.18;67.65;100258.54;1475105;88;21704;-77
2023/02/27 01:20:19;;;;;;;10.85;5.10;;;;;;;-0.20;67.85;100265.61;1478632;87;22307;-76
2023/02/27 01:22:45;;;;;;;13.00;3.70;;;;;;;-0.22;67.27;100277.84;1468418;88;21294;-75
2023/02/27 01:25:12;;;;;;;12.43;3.87;;;;;;;-0.23;67.30;100269.68;1477534;87;21656;-76
2023/02/27 01:27:38;;;;;;;11.25;5.30;;;;;;;-0.22;67.59;100271.34;1477682;87;22045;-76
2023/02/27 01:30:06;;;;;;;8.38;4.15;;;;;;;-0.25;67.05;100280.62;1470326;87;21501;-76
2023/02/27 01:32:32;;;;;;;9.65;5.12;;;;;;;-0.27;67.00;100281.16;1477363;87;21479;-76
2023/02/27 01:34:58;;;;;;;12.47;4.08;;;;;;;-0.25;67.40;100275.41;1475012;87;21398;-78
2023/02/27 01:37:25;;;;;;;8.05;4.20;;;;;;;-0.33;66.79;100278.41;1473618;88;21501;-76
2023/02/27 01:39:51;;;;;;;11.53;5.87;;;;;;;-0.33;67.04;100286.69;1477650;87;22397;-76
2023/02/27 01:42:24;;;;;;;10.88;4.05;;;;;;;-0.30;67.35;100277.42;1475866;88;21486;-76
2023/02/27 01:45:21;;;;;;;6.90;3.75;;;;;;;-0.34;67.06;100287.62;1479040;88;21338;-75
2023/02/27 01:47:51;;;;;;;12.33;5.60;;;;;;;-0.36;66.89;100280.34;1468177;87;21397;-76
2023/02/27 01:50:19;;;;;;;12.65;4.40;;;;;;;-0.38;67.04;100276.52;1465823;88;22410;-77
2023/02/27 01:52:51;;;;;;;5.80;3.65;;;;;;;-0.40;67.03;100280.11;1468829;87;21464;-77
2023/02/27 01:55:19;;;;;;;8.93;3.80;;;;;;;-0.42;66.77;100284.58;1481956;88;21464;-76
2023/02/27 01:57:48;;;;;;;11.03;3.95;;;;;;;-0.42;66.88;100278.91;1480911;87;21404;-76
2023/02/27 02:00:15;;;;;;;9.18;4.17;;;;;;;-0.47;67.07;100279.14;1480222;88;21442;-76
2023/02/27 02:02:53;;;;;;;9.93;4.30;;;;;;;-0.47;67.19;100283.05;1470036;87;21553;-76
2023/02/27 02:05:21;;;;;;;9.45;4.55;;;;;;;-0.50;66.68;100296.67;1468362;87;21383;-76
2023/02/27 02:07:48;;;;;;;13.10;4.17;;;;;;;-0.51;66.90;100290.64;1476924;87;21597;-75
2023/02/27 02:10:16;;;;;;;11.53;4.47;;;;;;;-0.50;66.78;100296.20;1474227;88;21368;-75
2023/02/27 02:12:44;;;;;;;8.68;3.80;;;;;;;-0.51;66.78;100301.50;1463378;88;21538;-76
2023/02/27 02:15:10;;;;;;;10.28;3.75;;;;;;;-0.52;66.41;100305.87;1464629;88;22321;-75
2023/02/27 02:18:06;;;;;;;5.20;2.90;;;;;;;-0.49;66.47;100308.30;1472480;87;22292;-76
2023/02/27 02:20:55;;;;;;;6.33;3.70;;;;;;;-0.47;66.39;100318.61;1473798;87;21502;-76
2023/02/27 02:24:05;;;;;;;6.00;3.60;;;;;;;-0.49;65.99;100310.91;1468125;88;22250;-75
2023/02/27 02:27:00;;;;;;;8.55;3.75;;;;;;;-0.46;66.28;100316.41;1479527;88;21434;-75
2023/02/27 02:29:54;;;;;;;6.58;4.28;;;;;;;-0.47;66.16;100320.74;1478000;88;21456;-75
2023/02/27 02:32:55;;;;;;;15.03;5.05;;;;;;;-0.43;66.32;100310.18;1472963;88;21611;-75
2023/02/27 02:35:50;;;;;;;13.50;4.35;;;;;;;-0.43;66.45;100320.58;1466507;87;21538;-77
2023/02/27 02:39:00;;;;;;;7.60;4.05;;;;;;;-0.45;66.55;100329.78;1470097;87;21538;-76
2023/02/27 02:41:38;;;;;;;6.25;3.75;;;;;;;-0.47;66.34;100332.91;1478594;87;21604;-79
2023/02/27 02:44:35;;;;;;;6.12;3.72;;;;;;;-0.43;66.46;100335.75;1471281;87;22389;-77
2023/02/27 02:47:22;;;;;;;7.53;3.90;;;;;;;-0.43;66.17;100345.28;1480873;88;21427;-77
2023/02/27 02:50:02;;;;;;;18.80;4.72;;;;;;;-0.42;66.16;100341.78;1477918;87;21398;-76
2023/02/27 02:53:00;;;;;;;6.75;3.62;;;;;;;-0.44;66.25;100344.91;1481322;87;22381;-77
2023/02/27 02:55:38;;;;;;;6.78;5.25;;;;;;;-0.43;66.38;100346.15;1478402;88;22558;-77
2023/02/27 02:58:28;;;;;;;6.67;4.12;;;;;;;-0.43;66.56;100345.28;1469626;88;21383;-77
2023/02/27 03:01:14;;;;;;;14.85;4.62;;;;;;;-0.42;66.53;100349.58;1454575;87;21463;-77
2023/02/27 03:03:45;;;;;;;7.80;4.83;;;;;;;-0.43;66.55;100346.15;1478979;88;21323;-77
2023/02/27 03:06:30;;;;;;;;;;;;;;;-0.41;66.83;100349.48;1475557;87;21478;-77
2023/02/27 03:09:16;;;;;;;7.65;4.58;;;;;;;-0.44;66.51;100348.81;1475693;88;20899;-76
2023/02/27 03:11:47;;;;;;;8.03;4.55;;;;;;;-0.42;66.79;100357.38;1471239;88;21553;-75
2023/02/27 03:14:28;;;;;;;7.70;4.00;;;;;;;-0.44;66.57;100355.31;1470345;87;22285;-75
2023/02/27 03:16:57;;;;;;;5.75;3.30;;;;;;;-0.43;66.79;100358.28;1474421;87;21659;-76
2023/02/27 03:19:32;;;;;;;5.47;3.80;;;;;;;-0.47;66.64;100364.95;1475332;88;21308;-76
2023/02/27 03:22:08;;;;;;;10.30;3.87;;;;;;;-0.40;66.50;100367.23;1478292;87;21590;-75
2023/02/27 03:24:43;;;;;;;13.98;3.95;;;;;;;-0.41;66.98;100372.05;1472826;87;21463;-77
2023/02/27 03:27:10;;;;;;;10.88;5.03;;;;;;;-0.43;66.75;100371.28;1470472;87;21479;-76
2023/02/27 03:30:09;;;;;;;10.15;5.12;;;;;;;-0.37;67.26;100377.50;1477808;88;21367;-75
2023/02/27 03:32:48;;;;;;;9.30;3.80;;;;;;;-0.40;67.02;100379.80;1470086;87;21486;-76
2023/02/27 03:35:15;;;;;;;5.58;3.37;;;;;;;-0.42;67.37;100373.82;1468509;87;21383;-75
2023/02/27 03:37:59;;;;;;;6.95;4.12;;;;;;;-0.38;67.55;100379.70;1479602;87;22504;-75
2023/02/27 03:40:45;;;;;;;11.93;4.45;;;;;;;-0.41;67.44;100377.25;1467868;88;21463;-76
2023/02/27 03:43:44;;;;;;;6.72;4.28;;;;;;;-0.41;67.44;100378.56;1475194;87;21441;-76
2023/02/27 03:46:17;;;;;;;8.25;5.37;;;;;;;-0.42;67.22;100384.69;1469842;87;22518;-76
2023/02/27 03:48:45;;;;;;;10.95;4.60;;;;;;;-0.38;67.41;100381.00;1466386;88;21575;-76
2023/02/27 03:51:17;;;;;;;9.65;4.05;;;;;;;-0.46;67.41;100382.25;1470301;88;21552;-76
2023/02/27 03:54:05;;;;;;;9.03;4.25;;;;;;;-0.39;67.58;100384.53;1476454;87;21464;-76
2023/02/27 03:56:42;;;;;;;8.43;4.92;;;;;;;-0.39;67.33;100385.36;1474704;88;21338;-76
2023/02/27 03:59:09;;;;;;;6.53;3.87;;;;;;;-0.41;67.54;100390.26;1466109;87;21516;-76
2023/02/27 04:01:36;;;;;;;8.05;4.85;;;;;;;-0.43;67.18;100397.29;1476910;87;21427;-76
2023/02/27 04:04:08;;;;;;;9.28;5.20;;;;;;;-0.40;67.36;100391.93;1471170;88;21605;-77
2023/02/27 04:09:38;;;;;;;10.35;4.83;;;;;;;-0.39;67.50;100400.13;1474808;88;21419;-76
2023/02/27 04:13:01;;;;;;;8.75;5.05;;;;;;;-0.39;66.95;100409.23;1473773;88;21423;-77
2023/02/27 04:15:59;;;;;;;6.67;3.70;;;;;;;-0.39;66.77;100412.67;1477514;87;21537;-76
2023/02/27 04:18:48;;;;;;;7.60;4.83;;;;;;;-0.42;66.86;100413.30;1474343;88;21352;-76
2023/02/27 04:21:35;;;;;;;8.68;4.10;;;;;;;-0.39;66.93;100409.23;1477192;87;21397;-76
2023/02/27 04:24:31;;;;;;;9.98;5.00;;;;;;;-0.41;66.62;100404.09;1475801;88;21442;-75
2023/02/27 04:27:25;;;;;;;7.83;4.75;;;;;;;-0.39;66.73;100406.63;1468288;87;21420;-76
2023/02/27 04:30:37;;;;;;;12.85;5.22;;;;;;;-0.40;66.14;100416.63;1480101;87;21538;-77
2023/02/27 04:33:21;;;;;;;7.92;4.25;;;;;;;-0.42;66.03;100404.19;1470885;87;21280;-76
2023/02/27 04:36:08;;;;;;;8.38;4.05;;;;;;;-0.40;66.62;100411.43;1470703;88;21528;-76
2023/02/27 04:38:48;;;;;;;10.75;5.83;;;;;;;-0.44;66.19;100418.55;1481262;87;21405;-76
2023/02/27 04:41:26;;;;;;;15.23;5.03;;;;;;;-0.41;66.31;100426.66;1477337;88;21486;-76
2023/02/27 04:43:56;;;;;;;6.80;3.85;;;;;;;-0.44;65.83;100425.06;1471425;88;21495;-76
2023/02/27 04:46:27;;;;;;;8.80;4.28;;;;;;;-0.44;65.88;100426.82;1468875;87;21952;-76
2023/02/27 04:49:01;;;;;;;9.63;4.87;;;;;;;-0.47;65.70;100419.55;1477110;87;21405;-76
2023/02/27 04:51:41;;;;;;;12.70;4.50;;;;;;;-0.46;65.88;100432.12;1469684;88;21456;-76
2023/02/27 04:54:15;;;;;;;8.28;4.70;;;;;;;-0.52;66.09;100430.66;1474862;88;21448;-77
2023/02/27 04:56:49;;;;;;;12.28;5.55;;;;;;;-0.49;65.71;100434.41;1466998;88;21567;-76
2023/02/27 04:59:20;;;;;;;8.90;4.47;;;;;;;-0.53;65.99;100435.45;1472732;88;21398;-77
2023/02/27 05:02:05;;;;;;;11.38;5.47;;;;;;;-0.56;65.49;100434.31;1470288;88;21574;-77
2023/02/27 05:04:36;;;;;;;10.85;4.95;;;;;;;-0.58;65.68;100440.05;1471611;87;21611;-76
2023/02/27 05:07:04;;;;;;;;;;;;;;;-0.62;65.42;100441.13;1480314;87;21301;-77
2023/02/27 05:09:54;;;;;;;8.20;3.72;;;;;;;-0.64;65.43;100442.11;1471901;88;20252;-76
2023/02/27 05:12:25;;;;;;;8.65;5.20;;;;;;;-0.65;65.33;100450.37;1472637;87;21404;-77
2023/02/27 05:14:57;;;;;;;8.85;4.58;;;;;;;-0.62;65.76;100441.13;1450398;88;21610;-77
2023/02/27 05:17:34;;;;;;;8.15;3.42;;;;;;;-0.65;65.68;100433.48;1477341;87;22469;-77
2023/02/27 05:20:01;;;;;;;6.83;4.05;;;;;;;-0.70;65.43;100441.95;1467444;87;21545;-76
2023/02/27 05:22:47;;;;;;;6.17;3.62;;;;;;;-0.68;65.22;100445.33;1478436;88;21456;-75
2023/02/27 05:25:39;;;;;;;8.58;4.08;;;;;;;-0.73;65.24;100453.34;1470994;87;22096;-75
2023/02/27 05:28:17;;;;;;;10.65;5.55;;;;;;;-0.70;65.54;100454.95;1475067;88;21250;-76
2023/02/27 05:31:19;;;;;;;8.38;4.90;;;;;;;-0.72;65.57;100459.38;1474238;88;22338;-75
2023/02/27 05:33:50;;;;;;;7.75;4.15;;;;;;;-0.76;65.06;100464.35;1472134;87;22299;-77
2023/02/27 05:36:37;;;;;;;11.68;5.50;;;;;;;-0.74;65.15;100470.33;1479470;87;21568;-75
2023/02/27 05:39:09;;;;;;;10.18;4.55;;;;;;;-0.68;65.22;100471.33;1476493;87;21534;-76
2023/02/27 05:41:49;;;;;;;10.15;5.40;;;;;;;-0.71;64.90;100472.77;1469742;88;22279;-77
2023/02/27 05:44:28;;;;;;;11.93;5.72;;;;;;;-0.75;64.56;100484.22;1466197;88;21397;-76
2023/02/27 05:47:09;;;;;;;10.58;5.58;;;;;;;-0.71;64.53;100483.17;1474970;87;21442;-76
2023/02/27 05:49:48;;;;;;;11.93;5.72;;;;;;;-0.68;64.95;100490.81;1475309;87;21435;-76
2023/02/27 05:52:19;;;;;;;8.03;4.25;;;;;;;-0.69;64.49;100490.45;1480151;87;21505;-76
2023/02/27 05:55:00;;;;;;;9.35;4.50;;;;;;;-0.66;64.06;100496.80;1475168;88;22955;-76
2023/02/27 05:57:30;;;;;;;;;;;;;;;-0.65;64.04;100492.43;1484134;87;21449;-76
2023/02/27 06:00:17;;;;;;;8.68;4.08;;;;;;;-0.64;64.20;100503.20;1469356;88;20795;-76
2023/02/27 06:02:45;;;;;;;8.63;4.28;;;;;;;-0.63;63.55;100516.14;1476954;88;21434;-77
2023/02/27 06:05:15;;;;;;;11.00;6.08;;;;;;;-0.62;62.84;100507.41;1482824;88;21449;-77
2023/02/27 06:07:41;;;;;;;9.55;3.92;;;;;;;-0.55;62.76;100519.18;1470523;88;21338;-76
2023/02/27 06:10:12;;;;;;;8.60;4.75;;;;;;;-0.51;62.46;100525.94;1476859;88;21538;-76
2023/02/27 06:12:38;;;;;;;10.38;5.08;;;;;;;-0.48;62.48;100521.88;1469346;88;21434;-79
2023/02/27 06:15:06;;;;;;;8.43;4.78;;;;;;;-0.41;62.57;100522.88;1474849;88;21449;-77
2023/02/27 06:17:33;;;;;;;11.10;4.87;;;;;;;-0.37;62.12;100522.66;1473641;87;21361;-78
2023/02/27 06:20:00;;;;;;;9.58;3.92;;;;;;;-0.33;61.70;100537.19;1476087;87;21501;-78
2023/02/27 06:22:26;;;;;;;8.23;4.17;;;;;;;-0.34;61.05;100538.58;1465980;87;21368;-76
2023/02/27 06:24:52;;;;;;;13.48;6.08;;;;;;;-0.32;61.43;100538.86;1469775;87;22580;-77
2023/02/27 06:27:18;;;;;;;8.43;3.77;;;;;;;-0.26;61.64;100536.42;1478951;87;21302;-78
2023/02/27 06:29:44;;;;;;;8.43;4.07;;;;;;;-0.25;60.99;100547.23;1470028;87;21757;-76
2023/02/27 06:32:10;;;;;;;5.43;3.07;;;;;;;-0.16;61.08;100557.17;1475583;87;21666;-76
2023/02/27 06:34:37;;;;;;;5.10;2.27;;;;;;;-0.12;61.33;100558.69;1474944;87;21650;-77
2023/02/27 06:37:03;;;;;;;7.60;3.90;;;;;;;-0.20;60.81;100552.18;1476274;87;22625;-76
2023/02/27 06:39:29;;;;;;;12.17;3.87;;;;;;;-0.18;60.95;100561.59;1480019;87;21404;-81
2023/02/27 06:41:55;;;;;;;6.23;3.80;;;;;;;-0.15;61.16;100561.45;1470548;88;21816;-83
2023/02/27 06:44:22;;;;;;;10.40;3.57;;;;;;;-0.16;60.94;100551.13;1470990;87;21567;-80
2023/02/27 06:46:48;;;;;;;5.37;3.70;;;;;;;-0.09;61.11;100558.53;1468794;87;21947;-80
2023/02/27 06:49:14;;;;;;;5.37;3.17;;;;;;;-0.06;61.33;100561.02;1474712;87;21554;-81
2023/02/27 06:51:41;;;;;;;10.57;3.30;;;;;;;-0.09;60.88;100572.84;1466800;88;21611;-81
2023/02/27 06:54:07;;;;;;;5.13;2.73;;;;;;;-0.07;60.92;100569.72;1468761;88;21475;-83
2023/02/27 06:56:33;;;;;;;6.40;3.03;;;;;;;-0.14;60.10;100568.35;1478406;87;22475;-80
2023/02/27 06:58:59;;;;;;;5.10;2.97;;;;;;;-0.11;60.14;100574.70;1473354;88;21580;-82
2023/02/27 07:01:26;;;;;;;5.83;2.23;;;;;;;-0.09;59.98;100566.80;1476054;87;21522;-82
2023/02/27 07:03:52;;;;;;;6.70;2.63;;;;;;;-0.11;59.36;100579.91;1471621;87;21594;-82
2023/02/27 07:06:18;;;;;;;4.33;2.70;;;;;;;-0.05;60.04;100567.05;1475530;88;21617;-82
2023/02/27 07:08:45;;;;;;;22.50;2.80;;;;;;;-0.04;59.62;100568.26;1472246;87;21732;-80
2023/02/27 07:15:12;;;;;;;10.63;3.23;;;;;;;-0.02;59.04;100578.14;1469909;88;22696;-81
2023/02/27 07:17:39;;;;;;;8.10;2.57;;;;;;;0.09;59.11;100581.98;1473915;88;22358;-82
2023/02/27 07:20:09;;;;;;;7.73;2.90;;;;;;;0.05;58.81;100588.24;1473249;87;21735;-81
2023/02/27 07:22:36;;;;;;;5.60;3.05;;;;;;;0.08;57.97;100586.78;1394036;88;21694;-82
2023/02/27 07:25:03;;;;;;;6.77;2.40;;;;;;;0.14;58.56;100575.59;1489077;87;21280;-81
2023/02/27 07:27:30;;;;;;;5.03;2.70;;;;;;;0.12;58.57;100589.63;1397679;87;21716;-85
2023/02/27 07:29:56;;;;;;;5.73;3.00;;;;;;;0.15;58.40;100592.08;1398336;87;21462;-79
2023/02/27 07:32:22;;;;;;;7.87;3.20;;;;;;;0.21;58.14;100596.97;1398504;88;21463;-79
2023/02/27 07:34:49;;;;;;;7.87;2.43;;;;;;;0.24;58.39;100599.88;1397868;88;22349;-81
2023/02/27 07:37:15;;;;;;;6.93;3.20;;;;;;;0.30;57.95;100603.01;1398768;87;21630;-81
2023/02/27 07:39:41;;;;;;;6.07;3.60;;;;;;;0.28;57.82;100613.95;1398111;87;21317;-79
2023/02/27 07:42:08;;;;;;;7.53;2.77;;;;;;;0.34;58.24;100607.59;1404328;87;22450;-80
2023/02/27 07:44:34;;;;;;;5.17;2.33;;;;;;;0.27;57.61;100614.05;1502479;87;21527;-81
2023/02/27 07:47:00;;;;;;;4.23;2.20;;;;;;;0.29;57.78;100628.67;1392762;88;21568;-79
2023/02/27 07:49:26;;;;;;;6.17;2.57;;;;;;;0.31;57.68;100627.28;1398703;87;21744;-79
2023/02/27 07:51:52;;;;;;;8.17;2.77;;;;;;;0.26;57.59;100631.87;1409728;87;21812;-78
2023/02/27 07:54:19;;;;;;;4.90;2.57;;;;;;;0.24;57.65;100625.45;1559185;88;21375;-80
2023/02/27 07:56:45;;;;;;;2.83;2.00;;;;;;;0.27;57.81;100621.39;1398799;87;21308;-78
2023/02/27 07:59:11;;;;;;;6.70;2.47;;;;;;;0.30;57.69;100624.30;1398358;87;21488;-81
2023/02/27 08:01:37;;;;;;;4.77;3.17;;;;;;;0.30;57.64;100624.30;1402950;88;22393;-80
2023/02/27 08:04:03;;;;;;;8.43;2.43;;;;;;;0.27;57.45;100627.06;1471423;87;21677;-80
2023/02/27 08:06:30;;;;;;;6.40;3.87;;;;;;;0.33;57.43;100630.19;1553850;88;21521;-79
2023/02/27 08:08:56;;;;;;;9.63;4.03;;;;;;;0.38;57.76;100631.27;1558466;87;21418;-80
2023/02/27 08:11:23;;;;;;;6.53;3.40;;;;;;;0.45;57.99;100633.94;1390642;89;21470;-79
2023/02/27 08:13:49;;;;;;;5.63;2.67;;;;;;;0.42;57.61;100647.95;1398448;88;22344;-80
2023/02/27 08:16:15;;;;;;;10.27;2.40;;;;;;;0.52;57.38;100650.08;1399334;87;21484;-79
2023/02/27 08:18:41;;;;;;;6.27;2.97;;;;;;;0.44;57.11;100651.33;1399397;88;21675;-81
2023/02/27 08:21:09;;;;;;;5.73;2.80;;;;;;;0.51;57.35;100647.94;1398414;88;22435;-77
2023/02/27 08:23:36;;;;;;;4.80;2.73;;;;;;;0.51;57.23;100667.47;1394826;88;22406;-80
2023/02/27 08:26:02;;;;;;;6.27;3.23;;;;;;;0.58;57.06;100666.72;1398255;88;21684;-81
2023/02/27 08:28:29;;;;;;;4.37;2.37;;;;;;;0.58;56.86;100673.23;1397417;88;21452;-82
2023/02/27 08:30:55;;;;;;;5.03;3.10;;;;;;;0.56;56.98;100677.20;1452521;88;21813;-82
2023/02/27 08:33:22;;;;;;;5.03;2.97;;;;;;;0.60;57.14;100683.09;1474905;88;21537;-82
2023/02/27 08:35:48;;;;;;;4.70;2.60;;;;;;;0.62;57.13;100674.75;1396959;88;22593;-81
2023/02/27 08:38:14;;;;;;;5.83;3.37;;;;;;;0.60;57.55;100681.33;1553766;87;21510;-80
2023/02/27 08:40:41;;;;;;;6.77;3.60;;;;;;;0.59;56.78;100674.91;1398045;88;21567;-80
2023/02/27 08:43:07;;;;;;;6.33;2.77;;;;;;;0.60;57.23;100677.89;1404177;88;21405;-79
2023/02/27 08:45:33;;;;;;;11.07;2.90;;;;;;;0.49;56.98;100682.36;1397292;88;21725;-82
2023/02/27 08:47:59;;;;;;;7.43;3.60;;;;;;;0.60;57.05;100694.81;1398572;87;21543;-82
2023/02/27 08:50:25;;;;;;;6.70;2.90;;;;;;;0.59;56.87;100693.14;1552302;87;22651;-80
2023/02/27 08:52:51;;;;;;;4.80;2.50;;;;;;;0.56;56.84;100697.20;1459475;88;21863;-82
2023/02/27 08:55:18;;;;;;;8.40;3.83;;;;;;;0.66;57.29;100710.13;1474382;87;21669;-82
2023/02/27 08:57:44;;;;;;;4.80;2.63;;;;;;;0.73;57.04;100702.41;1471205;87;21590;-81
2023/02/27 09:00:13;;;;;;;3.77;2.30;;;;;;;0.79;56.72;100708.60;1469018;88;21611;-81
2023/02/27 09:02:40;;;;;;;7.87;3.33;;;;;;;0.63;56.56;100702.48;1400700;87;21510;-81
2023/02/27 09:05:07;;;;;;;3.47;2.20;;;;;;;0.69;56.68;100716.48;1396132;87;22633;-80
2023/02/27 09:07:33;;;;;;;4.80;2.53;;;;;;;0.71;56.60;100715.96;1395984;87;21521;-81
2023/02/27 09:10:00;;;;;;;5.37;3.07;;;;;;;0.71;56.41;100723.78;1397621;88;21598;-78
2023/02/27 09:12:26;;;;;;;11.73;4.60;;;;;;;0.77;56.54;100726.06;1403552;87;21654;-79
2023/02/27 09:14:52;;;;;;;5.77;2.00;;;;;;;0.92;57.04;100729.66;1397423;87;21411;-79
2023/02/27 09:17:18;;;;;;;8.30;2.70;;;;;;;1.00;56.25;100734.48;1396480;88;21506;-80
2023/02/27 09:19:45;;;;;;;10.53;3.40;;;;;;;0.99;56.24;100745.84;1397561;88;21482;-81
2023/02/27 09:22:11;;;;;;;8.30;3.20;;;;;;;1.03;55.87;100746.05;1403294;87;21556;-80
2023/02/27 09:24:37;;;;;;;6.50;2.27;;;;;;;1.15;56.12;100742.80;1396438;88;21679;-78
2023/02/27 09:27:04;;;;;;;8.47;3.00;;;;;;;1.02;55.28;100750.42;1396540;88;21542;-79
2023/02/27 09:29:30;;;;;;;7.83;3.30;;;;;;;1.07;56.24;100750.20;1397585;87;21603;-79
2023/02/27 09:31:56;;;;;;;5.80;3.07;;;;;;;1.16;55.83;100752.33;1404096;87;21323;-84
2023/02/27 09:34:22;;;;;;;5.77;2.87;;;;;;;1.37;56.31;100753.43;1397005;88;21508;-82
2023/02/27 09:36:48;;;;;;;8.13;4.10;;;;;;;1.44;55.53;100747.82;1438490;88;21667;-83
2023/02/27 09:39:14;;;;;;;7.93;4.23;;;;;;;1.55;55.80;100760.27;1474563;87;21617;-81
2023/02/27 09:41:49;;;;;;;5.20;2.80;;;;;;;1.57;55.15;100759.73;1466046;87;21658;-78
2023/02/27 09:44:29;;;;;;;9.73;4.30;;;;;;;1.49;55.31;100771.03;1472294;88;21884;-78
2023/02/27 09:46:56;;;;;;;4.85;2.85;;;;;;;1.62;55.96;100767.33;1474798;88;22689;-79
2023/02/27 09:49:26;;;;;;;6.93;3.50;;;;;;;1.49;55.73;100763.20;1476335;88;21382;-80
2023/02/27 09:51:52;;;;;;;3.10;2.30;;;;;;;1.61;55.71;100766.46;1472870;87;21673;-77
2023/02/27 09:54:19;;;;;;;4.60;2.37;;;;;;;1.43;55.16;100783.09;1477710;88;21827;-80
2023/02/27 09:56:57;;;;;;;6.23;3.53;;;;;;;1.48;55.69;100773.27;1471963;87;22533;-80
2023/02/27 09:59:37;;;;;;;9.63;3.20;;;;;;;1.49;56.06;100784.08;1468832;88;21801;-80
2023/02/27 10:02:39;;;;;;;6.47;3.83;;;;;;;1.52;55.78;100786.52;1473551;87;22655;-80
2023/02/27 10:05:41;;;;;;;10.93;6.23;;;;;;;1.71;56.74;100788.54;1473453;87;22560;-80
2023/02/27 10:08:20;;;;;;;9.47;3.20;;;;;;;1.78;57.30;100788.61;1480549;87;22267;-80
2023/02/27 10:10:59;;;;;;;5.57;3.73;;;;;;;2.01;56.17;100795.19;1466342;88;21737;-80
2023/02/27 10:13:52;;;;;;;9.97;4.33;;;;;;;2.01;56.17;100795.19;1474001;88;22010;-80
2023/02/27 10:16:21;;;;;;;5.00;2.87;;;;;;;1.85;55.90;100800.86;1470702;87;21735;-80
2023/02/27 10:18:58;;;;;;;6.83;3.17;;;;;;;1.82;55.51;100798.41;1468333;87;21557;-80
2023/02/27 10:21:35;;;;;;;4.43;2.53;;;;;;;1.86;56.14;100800.39;1473071;88;21817;-79
2023/02/27 10:24:22;;;;;;;9.80;4.33;;;;;;;1.76;55.45;100811.33;1472505;88;21677;-79
2023/02/27 10:26:56;;;;;;;5.13;3.13;;;;;;;1.98;55.39;100820.60;1467067;88;21658;-78
2023/02/27 10:29:35;;;;;;;17.70;5.95;;;;;;;1.94;55.66;100826.92;1469221;88;21710;-80
2023/02/27 10:32:25;;;;;;;11.90;4.50;;;;;;;2.02;55.32;100824.75;1470225;87;21599;-79
2023/02/27 10:35:03;;;;;;;6.00;3.47;;;;;;;2.07;55.04;100825.31;1470165;87;22123;-80
2023/02/27 10:37:29;;;;;;;5.83;3.30;;;;;;;2.05;54.94;100827.19;1467294;87;23150;-81
2023/02/27 10:39:59;;;;;;;8.03;4.30;;;;;;;1.92;54.98;100831.38;1473910;88;21648;-80
2023/02/27 10:42:31;;;;;;;5.42;3.87;;;;;;;2.01;55.77;100825.66;1470019;87;21792;-79
2023/02/27 10:44:57;;;;;;;9.90;5.57;;;;;;;2.08;55.49;100830.10;1487362;88;21280;-80
2023/02/27 10:47:25;;;;;;;12.97;6.63;;;;;;;2.26;55.74;100840.37;1396852;87;22628;-80
2023/02/27 10:49:53;;;;;;;6.43;3.57;;;;;;;2.27;54.78;100847.73;1395490;88;21766;-79
2023/02/27 10:56:25;;;;;;;3.97;3.20;;;;;;;2.00;54.73;100840.48;1481875;88;21684;-79
2023/02/27 10:59:08;;;;;;;4.83;2.57;;;;;;;2.00;54.73;100840.48;1557712;87;21555;-77
2023/02/27 11:01:52;;;;;;;8.03;3.77;;;;;;;2.01;54.54;100852.62;1533107;88;21702;-79
2023/02/27 11:04:32;;;;;;;8.47;3.30;;;;;;;2.05;54.81;100846.77;1532898;87;21639;-79
2023/02/27 11:07:03;;;;;;;5.17;3.33;;;;;;;1.98;54.93;100847.55;1415255;88;21718;-80
2023/02/27 11:09:32;;;;;;;6.50;3.20;;;;;;;2.01;54.25;100853.94;1474979;87;21508;-79
2023/02/27 11:12:25;;;;;;;10.00;3.33;;;;;;;2.05;54.50;100857.22;1477147;87;21696;-80
2023/02/27 11:14:58;;;;;;;11.20;3.17;;;;;;;1.97;54.11;100858.09;1466627;88;22021;-78
2023/02/27 11:17:34;;;;;;;7.70;3.83;;;;;;;2.26;54.90;100854.73;1469397;87;21723;-81
2023/02/27 11:20:07;;;;;;;8.30;4.27;;;;;;;2.26;54.90;100854.73;1399129;88;21726;-79
2023/02/27 11:22:31;;;;;;;7.03;3.33;;;;;;;2.29;54.24;100857.64;1385209;89;21688;-79
2023/02/27 11:25:23;;;;;;;6.40;3.20;;;;;;;2.37;54.22;100863.77;1398373;88;22212;-81
2023/02/27 11:27:51;;;;;;;5.87;2.70;;;;;;;2.38;53.48;100861.52;1410342;87;21704;-78
2023/02/27 11:30:27;;;;;;;4.97;2.90;;;;;;;2.31;53.90;100865.41;1395346;89;21835;-79
2023/02/27 11:32:57;;;;;;;6.30;3.20;;;;;;;2.31;53.90;100865.41;1558683;88;22646;-79
2023/02/27 11:35:38;;;;;;;5.23;3.17;;;;;;;2.21;53.63;100881.55;1394902;88;22711;-80
2023/02/27 11:38:09;;;;;;;6.90;3.87;;;;;;;2.21;53.68;100872.42;1394911;87;21597;-79
2023/02/27 11:40:42;;;;;;;6.60;3.35;;;;;;;2.24;54.26;100868.80;1552421;87;21924;-80
2023/02/27 11:43:20;;;;;;;7.43;3.87;;;;;;;2.37;54.33;100872.44;1392811;87;21302;-78
2023/02/27 11:45:59;;;;;;;7.27;3.40;;;;;;;2.47;54.57;100879.30;1487016;88;21863;-79
2023/02/27 11:48:36;;;;;;;6.63;3.67;;;;;;;2.37;53.65;100871.60;1471839;87;23097;-79
2023/02/27 11:51:26;;;;;;;6.90;3.60;;;;;;;2.59;53.57;100878.64;1476523;88;21820;-79
2023/02/27 11:54:19;;;;;;;7.03;3.87;;;;;;;2.34;54.13;100881.75;1466482;88;22060;-79
2023/02/27 11:56:56;;;;;;;6.27;3.23;;;;;;;2.54;54.29;100878.52;1473899;87;22889;-78
2023/02/27 11:59:50;;;;;;;5.07;2.70;;;;;;;2.54;54.29;100878.52;1473382;88;21942;-79
2023/02/27 12:02:52;;;;;;;3.43;2.40;;;;;;;2.57;53.68;100891.41;1472865;87;22288;-78
2023/02/27 12:05:36;;;;;;;8.67;3.60;;;;;;;2.58;54.19;100899.14;1473838;87;21967;-79
2023/02/27 12:08:07;;;;;;;4.03;2.53;;;;;;;2.58;54.19;100899.14;1475270;88;22096;-79